createdAt,value
2019-03-25T00:02:06.773Z,100916.30
2019-03-25T00:04:38.259Z,100908.53
2019-03-25T00:07:09.642Z,100908.37
2019-03-25T00:09:41.042Z,100900.21
2019-03-25T00:12:12.988Z,100893.75
2019-03-25T00:14:44.427Z,100898.34
2019-03-25T00:17:15.805Z,100882.16
2019-03-25T00:19:49.043Z,100882.16
2019-03-25T00:22:20.428Z,100887.13
2019-03-25T00:24:52.064Z,100880.91
2019-03-25T00:27:23.429Z,100882.61
2019-03-25T00:29:55.012Z,100876.19
2019-03-25T00:32:26.462Z,100868.09
2019-03-25T00:34:57.846Z,100873.30
2019-03-25T00:37:29.326Z,100866.65
2019-03-25T00:40:00.976Z,100851.84
2019-03-25T00:42:32.727Z,100851.64
2019-03-25T00:45:04.314Z,100846.99
2019-03-25T00:47:35.908Z,100853.02
2019-03-25T00:50:08.592Z,100844.82
2019-03-25T00:52:40.265Z,100837.20
2019-03-25T00:55:11.910Z,100836.69
2019-03-25T00:57:44.325Z,100831.95
2019-03-25T01:00:15.916Z,100831.52
2019-03-25T01:02:47.303Z,100820.55
2019-03-25T01:05:18.807Z,100812.40
2019-03-25T01:07:50.241Z,100812.53
2019-03-25T01:10:22.018Z,100804.94
2019-03-25T01:12:53.767Z,100800.67
2019-03-25T01:15:25.167Z,100787.93
2019-03-25T01:17:56.598Z,100789.30
2019-03-25T01:20:28.657Z,100794.32
2019-03-25T01:23:00.059Z,100790.73
2019-03-25T01:25:32.385Z,100783.95
2019-03-25T01:28:03.828Z,100784.03
2019-03-25T01:30:35.829Z,100780.45
2019-03-25T01:33:07.187Z,100770.86
2019-03-25T01:35:39.230Z,100763.48
2019-03-25T01:38:10.813Z,100766.56
2019-03-25T01:40:42.400Z,100760.17
2019-03-25T01:43:13.879Z,100745.29
2019-03-25T01:45:45.962Z,100733.81
2019-03-25T01:48:17.936Z,100734.05
2019-03-25T01:50:49.676Z,100729.83
2019-03-25T01:53:21.130Z,100716.16
2019-03-25T01:55:52.903Z,100710.43
2019-03-25T01:58:24.263Z,100698.88
2019-03-25T02:00:55.685Z,100706.12
2019-03-25T02:03:27.234Z,100696.82
2019-03-25T02:05:59.133Z,100694.66
2019-03-25T02:08:30.931Z,100684.58
2019-03-25T02:11:02.616Z,100673.25
2019-03-25T02:13:34.016Z,100671.39
2019-03-25T02:16:06.036Z,100659.84
2019-03-25T02:18:37.481Z,100653.06
2019-03-25T02:21:10.239Z,100644.77
2019-03-25T02:23:41.897Z,100645.42
2019-03-25T02:26:13.386Z,100631.73
2019-03-25T02:28:45.130Z,100629.09
2019-03-25T02:31:16.559Z,100619.77
2019-03-25T02:33:48.551Z,100617.56
2019-03-25T02:36:20.644Z,100613.22
2019-03-25T02:38:52.105Z,100604.04
2019-03-25T02:41:23.858Z,100587.61
2019-03-25T02:43:55.515Z,100587.61
2019-03-25T02:46:26.911Z,100585.97
2019-03-25T02:48:58.626Z,100574.31
2019-03-25T02:51:30.661Z,100581.08
2019-03-25T02:54:02.284Z,100574.59
2019-03-25T02:56:34.150Z,100568.47
2019-03-25T02:59:06.166Z,100557.59
2019-03-25T03:01:37.562Z,100551.70
2019-03-25T03:04:09.240Z,100551.70
2019-03-25T03:06:41.211Z,100553.23
2019-03-25T03:09:12.849Z,100542.83
2019-03-25T03:11:44.448Z,100543.86
2019-03-25T03:14:15.821Z,100541.24
2019-03-25T03:16:47.173Z,100539.26
2019-03-25T03:19:18.853Z,100538.06
2019-03-25T03:21:51.186Z,100542.73
2019-03-25T03:24:22.938Z,100541.52
2019-03-25T03:26:54.615Z,100522.77
2019-03-25T03:29:26.319Z,100516.91
2019-03-25T03:31:58.081Z,100511.88
2019-03-25T03:34:29.767Z,100522.94
2019-03-25T03:37:01.782Z,100505.70
2019-03-25T03:39:33.251Z,100505.12
2019-03-25T03:42:05.776Z,100497.87
2019-03-25T03:44:37.426Z,100490.81
2019-03-25T03:47:08.779Z,100469.32
2019-03-25T03:49:40.186Z,100462.74
2019-03-25T03:52:11.597Z,100460.27
2019-03-25T03:54:43.194Z,100457.41
2019-03-25T03:57:16.927Z,100453.23
2019-03-25T03:59:48.617Z,100443.83
2019-03-25T04:02:20.654Z,100446.41
2019-03-25T04:04:52.039Z,100449.34
2019-03-25T04:07:23.554Z,100451.64
2019-03-25T04:09:54.930Z,100449.83
2019-03-25T04:12:26.330Z,100453.13
2019-03-25T04:14:58.892Z,100457.44
2019-03-25T04:17:30.275Z,100452.77
2019-03-25T04:20:01.953Z,100459.06
2019-03-25T04:22:34.033Z,100447.47
2019-03-25T04:25:05.882Z,100449.38
2019-03-25T04:27:37.534Z,100445.45
2019-03-25T04:30:09.760Z,100439.69
2019-03-25T04:32:41.224Z,100434.14
2019-03-25T04:35:12.822Z,100442.59
2019-03-25T04:37:44.380Z,100434.56
2019-03-25T04:40:15.989Z,100436.87
2019-03-25T04:42:47.763Z,100442.84
2019-03-25T04:45:19.179Z,100440.90
2019-03-25T04:47:50.978Z,100452.03
2019-03-25T04:50:22.376Z,100428.84
2019-03-25T04:52:54.054Z,100442.98
2019-03-25T04:55:25.730Z,100445.28
2019-03-25T04:57:57.597Z,100451.33
2019-03-25T05:00:36.599Z,100449.70
2019-03-25T05:03:08.615Z,100448.99
2019-03-25T05:05:40.082Z,100454.68
2019-03-25T05:08:11.730Z,100466.48
2019-03-25T05:10:43.172Z,100459.66
2019-03-25T05:13:16.170Z,100461.73
2019-03-25T05:15:47.972Z,100465.30
2019-03-25T05:18:19.384Z,100466.22
2019-03-25T05:20:51.069Z,100470.04
2019-03-25T05:23:22.799Z,100470.79
2019-03-25T05:25:54.433Z,100467.78
2019-03-25T05:28:26.379Z,100464.33
2019-03-25T05:30:57.939Z,100472.09
2019-03-25T05:33:29.403Z,100472.22
2019-03-25T05:36:01.017Z,100473.83
2019-03-25T05:38:33.519Z,100473.16
2019-03-25T05:41:05.296Z,100474.61
2019-03-25T05:43:36.952Z,100482.62
2019-03-25T05:46:09.995Z,100479.09
2019-03-25T05:48:41.892Z,100482.17
2019-03-25T05:51:15.993Z,100489.88
2019-03-25T05:53:48.102Z,100483.98
2019-03-25T05:56:20.033Z,100488.22
2019-03-25T05:58:51.855Z,100486.22
2019-03-25T06:01:23.879Z,100487.79
2019-03-25T06:03:55.338Z,100482.09
2019-03-25T06:06:26.782Z,100481.58
2019-03-25T06:08:59.070Z,100489.32
2019-03-25T06:11:30.680Z,100489.45
2019-03-25T06:14:02.627Z,100492.39
2019-03-25T06:16:34.419Z,100491.05
2019-03-25T06:19:06.799Z,100503.53
2019-03-25T06:21:38.188Z,100500.92
2019-03-25T06:24:09.573Z,100497.95
2019-03-25T06:26:41.500Z,100493.36
2019-03-25T06:29:13.223Z,100496.41
2019-03-25T06:31:44.833Z,100498.67
2019-03-25T06:34:16.978Z,100499.83
2019-03-25T06:36:48.677Z,100498.06
2019-03-25T06:39:20.227Z,100491.88
2019-03-25T06:41:51.820Z,100496.41
2019-03-25T06:44:23.861Z,100498.95
2019-03-25T06:46:55.210Z,100502.11
2019-03-25T06:49:26.607Z,100491.22
2019-03-25T06:51:59.539Z,100496.02
2019-03-25T06:54:31.810Z,100490.64
2019-03-25T06:57:03.191Z,100500.98
2019-03-25T06:59:34.865Z,100500.48
2019-03-25T07:02:06.668Z,100497.81
2019-03-25T07:04:38.071Z,100496.95
2019-03-25T07:07:10.106Z,100508.93
2019-03-25T07:09:41.479Z,100506.06
2019-03-25T07:12:12.935Z,100503.90
2019-03-25T07:14:44.665Z,100501.08
2019-03-25T07:17:16.347Z,100503.91
2019-03-25T07:19:47.987Z,100495.59
2019-03-25T07:22:19.690Z,100499.16
2019-03-25T07:24:51.317Z,100496.41
2019-03-25T07:27:23.456Z,100494.11
2019-03-25T07:29:55.163Z,100504.73
2019-03-25T07:32:26.754Z,100509.22
2019-03-25T07:34:59.088Z,100512.57
2019-03-25T07:37:30.453Z,100503.59
2019-03-25T07:40:02.296Z,100500.51
2019-03-25T07:42:33.829Z,100507.36
2019-03-25T07:45:05.461Z,100507.06
2019-03-25T07:47:37.154Z,100508.33
2019-03-25T07:50:09.147Z,100501.50
2019-03-25T07:52:40.815Z,100505.27
2019-03-25T07:55:13.027Z,100504.55
2019-03-25T07:57:48.585Z,100507.84
2019-03-25T08:00:18.146Z,100505.99
2019-03-25T08:02:49.871Z,100511.13
2019-03-25T08:05:21.361Z,100515.88
2019-03-25T08:07:53.530Z,100505.55
2019-03-25T08:10:35.555Z,100495.79
2019-03-25T08:13:07.425Z,100495.41
2019-03-25T08:15:39.195Z,100497.36
2019-03-25T08:18:11.229Z,100490.33
2019-03-25T08:20:43.050Z,100505.59
2019-03-25T08:23:14.676Z,100500.75
2019-03-25T08:25:46.706Z,100506.97
2019-03-25T08:28:18.114Z,100494.13
2019-03-25T08:30:49.631Z,100495.61
2019-03-25T08:33:21.371Z,100504.80
2019-03-25T08:35:52.760Z,100503.47
2019-03-25T08:38:25.768Z,100508.55
2019-03-25T08:40:57.308Z,100513.30
2019-03-25T08:43:28.940Z,100517.47
2019-03-25T08:46:00.820Z,100508.30
2019-03-25T08:48:32.205Z,100512.88
2019-03-25T08:51:04.138Z,100517.23
2019-03-25T08:53:35.825Z,100531.54
2019-03-25T08:56:07.441Z,100545.53
2019-03-25T08:58:39.543Z,100538.28
2019-03-25T09:01:10.988Z,100548.65
2019-03-25T09:03:42.616Z,100542.19
2019-03-25T09:06:14.205Z,100528.68
2019-03-25T09:08:46.257Z,100544.12
2019-03-25T09:11:17.607Z,100539.64
2019-03-25T09:13:49.349Z,100543.78
2019-03-25T09:16:21.122Z,100544.11
2019-03-25T09:18:52.478Z,100540.28
2019-03-25T09:21:24.313Z,100539.85
2019-03-25T09:23:56.010Z,100534.61
2019-03-25T09:26:27.679Z,100536.84
2019-03-25T09:28:59.577Z,100529.08
2019-03-25T09:31:36.825Z,100524.05
2019-03-25T09:34:04.367Z,100529.83
2019-03-25T09:36:36.067Z,100533.02
2019-03-25T09:39:07.897Z,100539.39
2019-03-25T09:41:40.108Z,100528.25
2019-03-25T09:44:11.943Z,100530.05
2019-03-25T09:46:43.459Z,100533.41
2019-03-25T09:49:15.078Z,100522.78
2019-03-25T09:51:46.555Z,100526.72
2019-03-25T09:54:18.177Z,100524.52
2019-03-25T09:56:50.141Z,100526.48
2019-03-25T09:59:21.590Z,100528.87
2019-03-25T10:01:53.247Z,100542.37
2019-03-25T10:04:24.619Z,100546.64
2019-03-25T10:06:56.291Z,100539.25
2019-03-25T10:09:27.900Z,100546.95
2019-03-25T10:11:59.566Z,100554.53
2019-03-25T10:14:30.945Z,100545.31
2019-03-25T10:17:03.554Z,100553.98
2019-03-25T10:19:35.038Z,100557.97
2019-03-25T10:22:06.731Z,100560.05
2019-03-25T10:24:38.116Z,100554.63
2019-03-25T10:27:09.473Z,100557.91
2019-03-25T10:29:41.459Z,100555.23
2019-03-25T10:32:12.902Z,100553.53
2019-03-25T10:34:44.371Z,100554.52
2019-03-25T10:37:16.272Z,100553.11
2019-03-25T10:39:47.705Z,100548.59
2019-03-25T10:42:19.299Z,100551.69
2019-03-25T10:44:50.812Z,100555.48
2019-03-25T10:47:22.184Z,100554.00
2019-03-25T10:49:53.917Z,100559.91
2019-03-25T10:52:25.293Z,100559.91
2019-03-25T10:57:28.049Z,100563.53
2019-03-25T10:59:59.746Z,100553.84
2019-03-25T11:02:31.115Z,100552.09
2019-03-25T11:05:02.827Z,100549.17
2019-03-25T11:07:34.363Z,100557.05
2019-03-25T11:10:06.662Z,100574.61
2019-03-25T11:12:39.676Z,100560.68
2019-03-25T11:15:13.035Z,100561.33
2019-03-25T11:17:44.832Z,100561.40
2019-03-25T11:20:16.508Z,100555.58
2019-03-25T11:22:48.178Z,100563.92
2019-03-25T11:25:19.670Z,100556.66
2019-03-25T11:27:54.500Z,100565.18
2019-03-25T11:30:51.548Z,100575.09
2019-03-25T11:33:23.774Z,100573.13
2019-03-25T11:35:57.031Z,100574.50
2019-03-25T11:38:29.862Z,100583.07
2019-03-25T11:41:01.348Z,100583.07
2019-03-25T11:43:33.186Z,100584.97
2019-03-25T11:46:04.986Z,100589.58
2019-03-25T11:48:36.469Z,100587.11
2019-03-25T11:51:08.280Z,100588.42
2019-03-25T11:53:39.932Z,100590.40
2019-03-25T11:56:11.409Z,100591.94
2019-03-25T11:58:43.113Z,100595.56
2019-03-25T12:01:14.886Z,100596.06
2019-03-25T12:03:46.688Z,100598.69
2019-03-25T12:06:18.163Z,100595.31
2019-03-25T12:08:49.578Z,100601.31
2019-03-25T12:11:23.669Z,100599.08
2019-03-25T12:13:55.133Z,100611.44
2019-03-25T12:16:27.528Z,100611.10
2019-03-25T12:18:59.167Z,100632.03
2019-03-25T12:21:30.526Z,100642.76
2019-03-25T12:24:02.183Z,100634.16
2019-03-25T12:26:33.674Z,100638.41
2019-03-25T12:29:05.226Z,100646.45
2019-03-25T12:31:36.633Z,100646.30
2019-03-25T12:34:08.266Z,100640.08
2019-03-25T12:36:39.620Z,100647.78
2019-03-25T12:39:10.982Z,100653.87
2019-03-25T12:41:43.240Z,100656.50
2019-03-25T12:44:14.818Z,100653.42
2019-03-25T12:46:47.550Z,100656.56
2019-03-25T12:49:19.188Z,100663.54
2019-03-25T12:51:50.785Z,100656.98
2019-03-25T12:54:22.724Z,100666.08
2019-03-25T12:56:54.111Z,100656.39
2019-03-25T12:59:25.463Z,100672.03
2019-03-25T13:01:56.826Z,100665.84
2019-03-25T13:04:28.344Z,100657.59
2019-03-25T13:06:59.730Z,100657.59
2019-03-25T13:09:31.323Z,100662.59
2019-03-25T13:12:03.514Z,100667.29
2019-03-25T13:14:35.261Z,100677.41
2019-03-25T13:17:07.327Z,100684.02
2019-03-25T13:19:38.923Z,100682.44
2019-03-25T13:22:10.565Z,100685.34
2019-03-25T13:24:42.487Z,100688.27
2019-03-25T13:27:14.297Z,100691.74
2019-03-25T13:29:52.548Z,100690.28
2019-03-25T13:32:19.577Z,100701.30
2019-03-25T13:34:50.965Z,100724.48
2019-03-25T13:37:22.832Z,100698.31
2019-03-25T13:39:54.559Z,100699.08
2019-03-25T13:42:26.249Z,100709.28
2019-03-25T13:44:58.197Z,100712.91
2019-03-25T13:47:29.588Z,100716.39
2019-03-25T13:50:01.105Z,100721.77
2019-03-25T13:52:32.592Z,100725.75
2019-03-25T13:55:04.280Z,100715.56
2019-03-25T13:57:35.734Z,100720.33
2019-03-25T14:00:08.494Z,100715.07
2019-03-25T14:02:39.990Z,100719.88
2019-03-25T14:05:11.981Z,100729.13
2019-03-25T14:07:43.369Z,100738.87
2019-03-25T14:10:15.542Z,100743.75
2019-03-25T14:12:47.806Z,100736.26
2019-03-25T14:15:19.443Z,100751.62
2019-03-25T14:17:51.405Z,100761.70
2019-03-25T14:20:23.739Z,100774.94
2019-03-25T14:22:55.736Z,100758.21
2019-03-25T14:25:27.073Z,100759.66
2019-03-25T14:27:59.284Z,100749.91
2019-03-25T14:30:30.610Z,100753.92
2019-03-25T14:33:02.850Z,100760.11
2019-03-25T14:35:34.584Z,100756.53
2019-03-25T14:38:06.164Z,100767.44
2019-03-25T14:40:37.793Z,100763.55
2019-03-25T14:43:09.208Z,100762.91
2019-03-25T14:45:40.546Z,100773.73
2019-03-25T14:48:11.982Z,100769.70
2019-03-25T14:50:43.720Z,100779.64
2019-03-25T14:53:15.733Z,100794.67
2019-03-25T14:55:47.420Z,100801.80
2019-03-25T14:58:18.910Z,100804.55
2019-03-25T15:00:50.602Z,100813.06
2019-03-25T15:03:22.316Z,100808.60
2019-03-25T15:05:53.894Z,100817.28
2019-03-25T15:08:25.646Z,100826.50
2019-03-25T15:10:57.119Z,100826.67
2019-03-25T15:13:29.066Z,100828.27
2019-03-25T15:16:00.421Z,100837.02
2019-03-25T15:18:32.037Z,100849.06
2019-03-25T15:21:03.537Z,100851.38
2019-03-25T15:23:34.978Z,100857.58
2019-03-25T15:26:07.988Z,100868.92
2019-03-25T15:28:39.574Z,100858.98
2019-03-25T15:31:11.721Z,100867.65
2019-03-25T15:33:43.366Z,100866.48
2019-03-25T15:36:15.461Z,100873.00
2019-03-25T15:38:46.896Z,100875.34
2019-03-25T15:41:18.703Z,100878.67
2019-03-25T15:43:50.434Z,100876.72
2019-03-25T15:46:21.858Z,100882.64
2019-03-25T15:48:53.787Z,100878.05
2019-03-25T15:51:25.331Z,100891.33
2019-03-25T15:53:56.723Z,100910.48
2019-03-25T15:56:28.339Z,100912.76
2019-03-25T15:58:59.748Z,100915.92
2019-03-25T16:01:32.164Z,100923.38
2019-03-25T16:04:03.547Z,100923.66
2019-03-25T16:06:35.236Z,100917.38
2019-03-25T16:09:08.214Z,100928.41
2019-03-25T16:11:39.641Z,100932.08
2019-03-25T16:14:11.733Z,100935.25
2019-03-25T16:16:43.140Z,100944.05
2019-03-25T16:19:14.685Z,100948.44
2019-03-25T16:21:47.278Z,100932.52
2019-03-25T16:24:20.282Z,100957.03
2019-03-25T16:26:51.937Z,100964.05
2019-03-25T16:29:23.431Z,100962.38
2019-03-25T16:31:54.809Z,100978.38
2019-03-25T16:34:26.461Z,100980.30
2019-03-25T16:36:58.026Z,100987.61
2019-03-25T16:39:29.441Z,100988.34
2019-03-25T16:42:00.845Z,100995.80
2019-03-25T16:44:32.706Z,100998.23
2019-03-25T16:47:04.211Z,101014.57
2019-03-25T16:49:36.033Z,101011.59
2019-03-25T16:52:07.386Z,101022.19
2019-03-25T16:54:38.817Z,101026.84
2019-03-25T16:57:10.324Z,101033.63
2019-03-25T16:59:41.780Z,101051.58
2019-03-25T17:02:13.300Z,101042.98
2019-03-25T17:04:45.143Z,101049.41
2019-03-25T17:07:16.599Z,101053.70
2019-03-25T17:09:48.873Z,101054.07
2019-03-25T17:12:20.614Z,101059.09
2019-03-25T17:14:52.367Z,101060.17
2019-03-25T17:17:24.108Z,101064.27
2019-03-25T17:19:55.782Z,101078.19
2019-03-25T17:22:27.262Z,101077.39
2019-03-25T17:24:59.059Z,101078.31
2019-03-25T17:27:30.544Z,101076.38
2019-03-25T17:30:02.511Z,101083.27
2019-03-25T17:32:34.917Z,101094.98
2019-03-25T17:35:06.365Z,101098.80
2019-03-25T17:37:38.018Z,101107.13
2019-03-25T17:40:09.946Z,101108.72
2019-03-25T17:42:41.867Z,101114.91
2019-03-25T17:45:13.613Z,101115.46
2019-03-25T17:47:47.400Z,101130.41
2019-03-25T17:50:19.743Z,101136.70
2019-03-25T17:52:51.367Z,101137.91
2019-03-25T17:55:23.006Z,101143.96
2019-03-25T17:57:54.376Z,101155.03
2019-03-25T18:01:14.264Z,101164.83
2019-03-25T18:03:45.966Z,101173.59
2019-03-25T18:06:18.665Z,101180.20
2019-03-25T18:08:50.317Z,101183.72
2019-03-25T18:11:22.995Z,101182.03
2019-03-25T18:13:54.940Z,101182.95
2019-03-25T18:16:26.320Z,101187.08
2019-03-25T18:18:58.434Z,101190.25
2019-03-25T18:21:30.148Z,101196.17
2019-03-25T18:24:01.714Z,101202.80
2019-03-25T18:26:33.059Z,101200.38
2019-03-25T18:29:04.666Z,101210.09
2019-03-25T18:31:43.406Z,101209.69
2019-03-25T18:34:10.041Z,101224.52
2019-03-25T18:36:41.471Z,101222.93
2019-03-25T18:39:13.896Z,101220.70
2019-03-25T18:41:45.314Z,101235.11
2019-03-25T18:44:16.762Z,101243.61
2019-03-25T18:46:48.559Z,101241.70
2019-03-25T18:49:20.059Z,101254.84
2019-03-25T18:51:51.958Z,101249.59
2019-03-25T18:54:27.464Z,101255.67
2019-03-25T18:56:59.177Z,101263.63
2019-03-25T18:59:30.866Z,101265.41
2019-03-25T19:02:02.319Z,101267.97
2019-03-25T19:04:34.049Z,101271.13
2019-03-25T19:07:05.977Z,101274.90
2019-03-25T19:09:37.443Z,101272.92
2019-03-25T19:12:08.957Z,101279.41
2019-03-25T19:14:40.696Z,101275.61
2019-03-25T19:17:12.321Z,101284.36
2019-03-25T19:19:44.365Z,101284.55
2019-03-25T19:22:15.742Z,101289.50
2019-03-25T19:24:47.518Z,101295.95
2019-03-25T19:27:19.042Z,101298.49
2019-03-25T19:29:50.757Z,101308.13
2019-03-25T19:32:25.694Z,101311.05
2019-03-25T19:35:04.945Z,101321.71
2019-03-25T19:37:36.372Z,101320.69
2019-03-25T19:40:10.495Z,101326.96
2019-03-25T19:42:41.848Z,101336.44
2019-03-25T19:45:13.501Z,101334.16
2019-03-25T19:47:45.012Z,101343.56
2019-03-25T19:50:16.941Z,101354.94
2019-03-25T19:52:48.432Z,101359.23
2019-03-25T19:55:20.180Z,101363.75
2019-03-25T19:57:52.923Z,101361.12
2019-03-25T20:00:35.654Z,101364.66
2019-03-25T20:03:07.323Z,101367.20
2019-03-25T20:05:38.921Z,101367.83
2019-03-25T20:08:10.971Z,101372.56
2019-03-25T20:10:42.366Z,101374.33
2019-03-25T20:13:14.317Z,101381.88
2019-03-25T20:15:46.898Z,101382.28
2019-03-25T20:18:19.478Z,101392.80
2019-03-25T20:20:51.678Z,101390.17
2019-03-25T20:23:23.291Z,101403.37
2019-03-25T20:25:55.384Z,101406.08
2019-03-25T20:28:27.125Z,101410.56
2019-03-25T20:30:58.616Z,101418.27
2019-03-25T20:33:30.116Z,101424.84
2019-03-25T20:36:02.408Z,101423.33
2019-03-25T20:38:33.828Z,101432.59
2019-03-25T20:41:05.496Z,101434.95
2019-03-25T20:43:36.965Z,101438.04
2019-03-25T20:46:08.441Z,101447.22
2019-03-25T20:48:39.819Z,101450.02
2019-03-25T20:51:11.294Z,101448.39
2019-03-25T20:53:42.779Z,101458.38
2019-03-25T20:56:14.218Z,101459.22
2019-03-25T20:58:47.824Z,101464.01
2019-03-25T21:01:19.377Z,101467.45
2019-03-25T21:03:51.299Z,101466.76
2019-03-25T21:06:23.181Z,101470.64
2019-03-25T21:08:54.625Z,101475.03
2019-03-25T21:11:26.054Z,101474.28
2019-03-25T21:13:57.544Z,101467.81
2019-03-25T21:16:29.010Z,101477.36
2019-03-25T21:19:00.447Z,101478.66
2019-03-25T21:21:32.364Z,101477.66
2019-03-25T21:24:03.977Z,101473.10
2019-03-25T21:26:41.645Z,101486.61
2019-03-25T21:29:13.396Z,101498.45
2019-03-25T21:31:44.879Z,101494.01
2019-03-25T21:34:16.352Z,101511.05
2019-03-25T21:36:52.055Z,101511.56
2019-03-25T21:39:23.616Z,101522.48
2019-03-25T21:41:55.076Z,101524.71
2019-03-25T21:44:26.469Z,101528.61
2019-03-25T21:46:58.799Z,101520.32
2019-03-25T21:49:30.989Z,101522.03
2019-03-25T21:52:02.977Z,101527.30
2019-03-25T21:54:34.399Z,101532.17
2019-03-25T21:57:05.970Z,101540.91
2019-03-25T21:59:40.341Z,101545.37
2019-03-25T22:02:11.908Z,101542.75
2019-03-25T22:04:43.447Z,101542.75
2019-03-25T22:07:14.910Z,101547.38
2019-03-25T22:09:46.923Z,101557.09
2019-03-25T22:12:18.556Z,101559.70
2019-03-25T22:14:50.370Z,101565.41
2019-03-25T22:17:21.935Z,101562.47
2019-03-25T22:19:53.932Z,101562.28
2019-03-25T22:22:25.582Z,101571.14
2019-03-25T22:24:56.979Z,101583.52
2019-03-25T22:27:28.830Z,101572.11
2019-03-25T22:30:00.342Z,101578.27
2019-03-25T22:32:31.747Z,101586.53
2019-03-25T22:35:03.169Z,101578.80
2019-03-25T22:37:36.154Z,101581.67
2019-03-25T22:40:08.013Z,101585.59
2019-03-25T22:42:39.665Z,101591.02
2019-03-25T22:45:11.591Z,101585.84
2019-03-25T22:47:44.569Z,101590.45
2019-03-25T22:50:28.912Z,101596.64
2019-03-25T22:53:00.557Z,101595.73
2019-03-25T22:55:33.219Z,101603.71
2019-03-25T22:58:04.981Z,101602.96
2019-03-25T23:00:46.505Z,101605.93
2019-03-25T23:03:18.118Z,101599.94
2019-03-25T23:05:49.550Z,101600.34
2019-03-25T23:08:20.898Z,101607.75
2019-03-25T23:10:52.592Z,101603.83
2019-03-25T23:13:25.831Z,101611.39
2019-03-25T23:15:57.425Z,101613.09
2019-03-25T23:18:29.776Z,101589.80
2019-03-25T23:21:01.496Z,101614.95
2019-03-25T23:23:33.313Z,101617.42
2019-03-25T23:26:04.820Z,101620.64
2019-03-25T23:28:36.196Z,101632.38
2019-03-25T23:31:07.589Z,101629.34
2019-03-25T23:33:51.427Z,101630.71
2019-03-25T23:36:12.980Z,101629.80
2019-03-25T23:38:44.656Z,101635.95
2019-03-25T23:41:15.994Z,101638.56
2019-03-25T23:43:47.843Z,101634.08
2019-03-25T23:46:19.189Z,101630.67
2019-03-25T23:48:51.118Z,101633.78
2019-03-25T23:51:22.656Z,101631.22
2019-03-25T23:54:11.352Z,101629.49
2019-03-25T23:56:43.720Z,101640.88
2019-03-25T23:59:15.437Z,101632.70
